Palisade, Nebraska
Current Conditions -  °F | °C
As of 3:53 PM on Tuesday 21 Oct 2014 (Local Time) from KIML Reporting Station
Clear Clear  
Wind Chill: 78°   Ceiling: Unl
Heat Index: 78°   Visibility: 10mi
Dew Point: 48°   Wind: 22mph
Humidity: 35%   Direction: 170°S
Pressure: 29.9"   Gusts: 29mph
Location:  40.35°N, 101.11°W
Report Text: KIML 212053Z AUTO 17019G25KT 10SM CLR 26/09 A2990 RMK AO2 PK WND 17029/2022 SLP102 T02560089 56029
Loading
Personal Weather Stations






























Interactive Weather Map
Tropical Storm Tracking
New forecast layout! Learn more

10-Day Weather Forecast

Advertisements
Track Severe Weather on mobile